Churchill Falls, Canada
Current Conditions -  °F | °C
As of 8:00 PM on Friday 31 Oct 2014 (Local Time) from CZUM Reporting Station
Broken Clouds Broken Clouds  
Wind Chill: 18°   Ceiling: 5500
Heat Index: 28°   Visibility: 9mi
Dew Point: 19°   Wind: 13mph
Humidity: 69%   Direction: 270°W
Pressure: 29.93"   Gusts: 21mph
Location:  53.53°N, 64°W
Report Text: CZUM 312300Z AUTO 27011G18KT 9SM FEW041 BKN055 M02/M07 A2993 RMK SLP161
Loading
Personal Weather Stations






























Interactive Weather Map
Tropical Storm Tracking
New forecast layout! Learn more

10-Day Weather Forecast

Advertisements
Track Severe Weather on mobile